createdAt,value
2019-02-06T00:00:40.700Z,101655.66
2019-02-06T00:03:14.046Z,101660.22
2019-02-06T00:05:45.459Z,101658.62
2019-02-06T00:08:16.882Z,101659.05
2019-02-06T00:10:48.267Z,101655.39
2019-02-06T00:13:19.636Z,101653.35
2019-02-06T00:15:51.523Z,101659.80
2019-02-06T00:18:22.998Z,101660.34
2019-02-06T00:20:54.474Z,101652.84
2019-02-06T00:23:25.713Z,101657.72
2019-02-06T00:25:57.106Z,101658.89
2019-02-06T00:28:28.391Z,101659.88
2019-02-06T00:31:01.168Z,101665.77
2019-02-06T00:33:32.607Z,101659.95
2019-02-06T00:36:04.340Z,101661.80
2019-02-06T00:38:35.800Z,101662.00
2019-02-06T00:41:07.052Z,101659.16
2019-02-06T00:43:38.353Z,101659.02
2019-02-06T00:46:09.750Z,101661.25
2019-02-06T00:48:41.192Z,101662.51
2019-02-06T00:51:12.528Z,101657.88
2019-02-06T00:53:43.822Z,101656.77
2019-02-06T00:56:15.082Z,101652.72
2019-02-06T00:58:46.446Z,101648.39
2019-02-06T01:01:17.790Z,101646.97
2019-02-06T01:03:49.174Z,101642.38
2019-02-06T01:06:20.473Z,101644.31
2019-02-06T01:08:53.074Z,101649.06
2019-02-06T01:11:24.473Z,101644.47
2019-02-06T01:13:56.784Z,101649.50
2019-02-06T01:16:28.108Z,101648.83
2019-02-06T01:18:59.421Z,101654.33
2019-02-06T01:21:30.972Z,101653.34
2019-02-06T01:24:02.356Z,101655.33
2019-02-06T01:26:33.677Z,101654.37
2019-02-06T01:29:05.188Z,101655.16
2019-02-06T01:31:37.633Z,101661.69
2019-02-06T01:34:09.357Z,101668.23
2019-02-06T01:36:40.753Z,101663.47
2019-02-06T01:39:13.137Z,101661.84
2019-02-06T01:41:44.466Z,101659.91
2019-02-06T01:44:15.762Z,101655.70
2019-02-06T01:46:47.393Z,101659.48
2019-02-06T01:49:18.702Z,101663.64
2019-02-06T01:51:50.022Z,101657.23
2019-02-06T01:54:21.415Z,101659.52
2019-02-06T01:56:52.738Z,101658.53
2019-02-06T01:59:24.033Z,101665.38
2019-02-06T02:01:55.293Z,101661.90
2019-02-06T02:04:26.679Z,101660.91
2019-02-06T02:06:58.064Z,101661.54
2019-02-06T02:09:29.551Z,101651.02
2019-02-06T02:12:00.802Z,101652.02
2019-02-06T02:14:32.337Z,101657.20
2019-02-06T02:17:03.788Z,101655.00
2019-02-06T02:19:35.178Z,101658.11
2019-02-06T02:22:06.715Z,101651.27
2019-02-06T02:24:38.043Z,101651.95
2019-02-06T02:27:09.615Z,101648.91
2019-02-06T02:29:40.930Z,101650.50
2019-02-06T02:32:13.242Z,101645.46
2019-02-06T02:34:44.546Z,101642.92
2019-02-06T02:37:15.917Z,101648.52
2019-02-06T02:39:47.487Z,101646.31
2019-02-06T02:42:18.846Z,101638.27
2019-02-06T02:44:50.146Z,101641.13
2019-02-06T02:47:21.468Z,101640.30
2019-02-06T02:49:52.729Z,101630.61
2019-02-06T02:52:24.407Z,101634.73
2019-02-06T02:54:55.692Z,101624.25
2019-02-06T02:57:27.103Z,101628.82
2019-02-06T02:59:58.424Z,101636.56
2019-02-06T03:02:31.422Z,101637.09
2019-02-06T03:05:03.195Z,101636.34
2019-02-06T03:07:34.709Z,101631.95
2019-02-06T03:10:10.751Z,101630.58
2019-02-06T03:12:42.197Z,101622.91
2019-02-06T03:15:13.652Z,101625.98
2019-02-06T03:17:45.223Z,101625.62
2019-02-06T03:20:16.636Z,101621.30
2019-02-06T03:22:48.082Z,101611.97
2019-02-06T03:25:19.330Z,101614.17
2019-02-06T03:27:50.693Z,101612.53
2019-02-06T03:30:22.506Z,101611.14
2019-02-06T03:32:53.892Z,101613.74
2019-02-06T03:35:25.210Z,101611.77
2019-02-06T03:37:56.685Z,101610.64
2019-02-06T03:40:28.055Z,101605.05
2019-02-06T03:42:59.687Z,101601.41
2019-02-06T03:45:31.590Z,101605.28
2019-02-06T03:48:03.457Z,101604.52
2019-02-06T03:50:34.856Z,101608.58
2019-02-06T03:53:06.991Z,101604.19
2019-02-06T03:55:38.248Z,101606.28
2019-02-06T03:58:09.716Z,101607.82
2019-02-06T04:00:42.880Z,101609.65
2019-02-06T04:03:14.389Z,101615.46
2019-02-06T04:05:45.662Z,101615.09
2019-02-06T04:08:17.055Z,101617.43
2019-02-06T04:10:48.386Z,101620.67
2019-02-06T04:13:19.630Z,101618.34
2019-02-06T04:15:51.496Z,101624.41
2019-02-06T04:18:22.884Z,101624.38
2019-02-06T04:20:54.210Z,101624.53
2019-02-06T04:23:25.823Z,101627.52
2019-02-06T04:25:57.234Z,101627.03
2019-02-06T04:28:28.526Z,101622.24
2019-02-06T04:31:01.001Z,101620.19
2019-02-06T04:33:32.603Z,101614.50
2019-02-06T04:36:04.116Z,101617.34
2019-02-06T04:38:35.589Z,101617.22
2019-02-06T04:41:07.028Z,101611.91
2019-02-06T04:43:38.461Z,101611.27
2019-02-06T04:46:10.083Z,101604.03
2019-02-06T04:48:41.483Z,101607.76
2019-02-06T04:51:13.307Z,101607.52
2019-02-06T04:53:45.071Z,101612.58
2019-02-06T04:56:16.626Z,101611.53
2019-02-06T04:58:50.156Z,101607.39
2019-02-06T05:01:21.613Z,101611.67
2019-02-06T05:03:53.140Z,101612.45
2019-02-06T05:06:24.603Z,101616.45
2019-02-06T05:08:56.100Z,101614.64
2019-02-06T05:11:27.391Z,101613.61
2019-02-06T05:14:01.435Z,101613.61
2019-02-06T05:16:32.848Z,101613.50
2019-02-06T05:19:04.390Z,101613.23
2019-02-06T05:21:35.843Z,101608.84
2019-02-06T05:24:07.347Z,101605.99
2019-02-06T05:26:39.087Z,101608.70
2019-02-06T05:29:10.563Z,101608.45
2019-02-06T05:31:41.814Z,101607.30
2019-02-06T05:34:14.168Z,101607.17
2019-02-06T05:36:45.424Z,101614.67
2019-02-06T05:39:17.193Z,101614.92
2019-02-06T05:41:48.524Z,101613.63
2019-02-06T05:44:19.815Z,101614.13
2019-02-06T05:46:51.261Z,101610.11
2019-02-06T05:49:22.838Z,101609.36
2019-02-06T05:52:01.966Z,101609.50
2019-02-06T05:54:33.267Z,101604.33
2019-02-06T05:57:04.732Z,101609.90
2019-02-06T05:59:36.055Z,101608.47
2019-02-06T06:02:07.496Z,101608.22
2019-02-06T06:04:38.884Z,101602.53
2019-02-06T06:07:10.472Z,101596.20
2019-02-06T06:09:41.800Z,101605.12
2019-02-06T06:12:13.156Z,101598.14
2019-02-06T06:14:44.419Z,101598.91
2019-02-06T06:17:15.770Z,101600.59
2019-02-06T06:19:47.298Z,101596.59
2019-02-06T06:22:18.675Z,101596.72
2019-02-06T06:24:49.970Z,101597.88
2019-02-06T06:27:21.274Z,101607.19
2019-02-06T06:29:52.586Z,101598.14
2019-02-06T06:32:24.072Z,101592.06
2019-02-06T06:34:55.387Z,101597.23
2019-02-06T06:37:26.698Z,101594.78
2019-02-06T06:39:58.034Z,101599.56
2019-02-06T06:42:29.321Z,101594.39
2019-02-06T06:45:00.575Z,101597.50
2019-02-06T06:47:31.873Z,101598.53
2019-02-06T06:50:03.269Z,101607.06
2019-02-06T06:52:34.570Z,101610.55
2019-02-06T06:55:10.253Z,101609.26
2019-02-06T06:57:42.805Z,101609.91
2019-02-06T07:00:25.435Z,101611.45
2019-02-06T07:03:10.934Z,101611.06
2019-02-06T07:05:42.448Z,101612.75
2019-02-06T07:08:13.946Z,101617.53
2019-02-06T07:10:45.248Z,101615.45
2019-02-06T07:13:17.705Z,101625.67
2019-02-06T07:15:49.201Z,101621.91
2019-02-06T07:18:20.501Z,101630.06
2019-02-06T07:20:52.144Z,101634.07
2019-02-06T07:23:23.677Z,101633.30
2019-02-06T07:25:55.745Z,101631.09
2019-02-06T07:28:28.483Z,101631.22
2019-02-06T07:30:59.905Z,101630.96
2019-02-06T07:33:31.378Z,101633.03
2019-02-06T07:36:03.970Z,101633.80
2019-02-06T07:38:35.301Z,101634.58
2019-02-06T07:41:06.669Z,101636.25
2019-02-06T07:43:38.140Z,101639.86
2019-02-06T07:46:09.590Z,101634.05
2019-02-06T07:48:40.983Z,101635.19
2019-02-06T07:51:12.269Z,101633.24
2019-02-06T07:53:44.541Z,101631.92
2019-02-06T07:56:15.867Z,101635.69
2019-02-06T07:58:50.566Z,101641.38
2019-02-06T08:01:20.548Z,101632.69
2019-02-06T08:03:53.172Z,101634.88
2019-02-06T08:06:24.534Z,101633.56
2019-02-06T08:08:57.612Z,101631.34
2019-02-06T08:11:29.249Z,101622.27
2019-02-06T08:14:00.575Z,101617.59
2019-02-06T08:16:31.966Z,101626.36
2019-02-06T08:19:03.615Z,101617.27
2019-02-06T08:21:35.138Z,101620.27
2019-02-06T08:24:06.801Z,101622.05
2019-02-06T08:26:38.350Z,101626.96
2019-02-06T08:29:09.785Z,101624.50
2019-02-06T08:31:41.173Z,101629.92
2019-02-06T08:34:12.459Z,101634.05
2019-02-06T08:36:44.140Z,101638.96
2019-02-06T08:39:15.601Z,101635.83
2019-02-06T08:41:47.075Z,101632.97
2019-02-06T08:44:18.534Z,101636.83
2019-02-06T08:46:49.963Z,101636.68
2019-02-06T08:49:21.709Z,101641.32
2019-02-06T08:51:53.058Z,101637.02
2019-02-06T08:54:24.354Z,101632.46
2019-02-06T08:56:55.866Z,101635.02
2019-02-06T08:59:27.196Z,101629.30
2019-02-06T09:01:58.502Z,101637.55
2019-02-06T09:04:29.750Z,101638.80
2019-02-06T09:07:01.117Z,101636.18
2019-02-06T09:09:32.577Z,101640.38
2019-02-06T09:12:04.046Z,101638.14
2019-02-06T09:14:35.438Z,101636.92
2019-02-06T09:17:06.916Z,101636.38
2019-02-06T09:19:38.163Z,101632.28
2019-02-06T09:22:09.594Z,101628.97
2019-02-06T09:24:40.997Z,101632.81
2019-02-06T09:27:12.490Z,101629.16
2019-02-06T09:29:44.001Z,101635.86
2019-02-06T09:32:15.451Z,101634.39
2019-02-06T09:34:46.702Z,101631.75
2019-02-06T09:37:18.072Z,101629.50
2019-02-06T09:39:49.317Z,101624.66
2019-02-06T09:42:22.011Z,101616.58
2019-02-06T09:44:53.262Z,101618.22
2019-02-06T09:47:24.626Z,101611.16
2019-02-06T09:49:55.880Z,101615.80
2019-02-06T09:52:28.904Z,101610.83
2019-02-06T09:55:00.331Z,101615.17
2019-02-06T09:57:35.471Z,101618.61
2019-02-06T10:00:11.066Z,101614.03
2019-02-06T10:02:42.452Z,101614.09
2019-02-06T10:05:14.363Z,101614.13
2019-02-06T10:07:47.013Z,101609.67
2019-02-06T10:10:21.633Z,101606.03
2019-02-06T10:12:53.068Z,101612.00
2019-02-06T10:15:30.864Z,101608.17
2019-02-06T10:18:02.748Z,101608.43
2019-02-06T10:20:44.694Z,101606.08
2019-02-06T10:23:16.208Z,101610.41
2019-02-06T10:25:47.668Z,101609.78
2019-02-06T10:28:19.150Z,101605.11
2019-02-06T10:31:00.101Z,101608.42
2019-02-06T10:33:37.237Z,101608.45
2019-02-06T10:36:08.667Z,101609.06
2019-02-06T10:38:40.154Z,101603.16
2019-02-06T10:41:11.458Z,101604.06
2019-02-06T10:43:42.819Z,101602.80
2019-02-06T10:46:14.259Z,101591.31
2019-02-06T10:48:45.647Z,101588.53
2019-02-06T10:51:16.947Z,101583.33
2019-02-06T10:53:48.335Z,101577.23
2019-02-06T10:56:19.699Z,101570.92
2019-02-06T10:58:52.260Z,101563.61
2019-02-06T11:01:23.657Z,101563.81
2019-02-06T11:03:55.080Z,101561.80
2019-02-06T11:06:26.915Z,101556.17
2019-02-06T11:08:58.349Z,101552.19
2019-02-06T11:11:29.659Z,101548.47
2019-02-06T11:14:01.081Z,101543.02
2019-02-06T11:16:32.431Z,101539.38
2019-02-06T11:19:04.216Z,101533.72
2019-02-06T11:21:35.644Z,101529.06
2019-02-06T11:24:07.120Z,101527.95
2019-02-06T11:26:38.488Z,101525.13
2019-02-06T11:29:10.014Z,101519.94
2019-02-06T11:31:41.726Z,101516.17
2019-02-06T11:34:13.026Z,101512.30
2019-02-06T11:36:45.378Z,101502.19
2019-02-06T11:39:19.253Z,101499.70
2019-02-06T11:41:50.749Z,101498.84
2019-02-06T11:44:22.418Z,101496.22
2019-02-06T11:46:53.798Z,101499.59
2019-02-06T11:49:29.970Z,101489.28
2019-02-06T11:52:01.378Z,101482.38
2019-02-06T11:54:32.689Z,101481.26
2019-02-06T11:57:04.305Z,101476.38
2019-02-06T11:59:35.676Z,101469.21
2019-02-06T12:02:07.051Z,101473.55
2019-02-06T12:04:39.364Z,101469.80
2019-02-06T12:07:10.651Z,101470.05
2019-02-06T12:09:42.406Z,101461.55
2019-02-06T12:12:13.709Z,101457.70
2019-02-06T12:14:45.270Z,101453.13
2019-02-06T12:17:16.695Z,101447.14
2019-02-06T12:19:48.220Z,101432.08
2019-02-06T12:22:19.875Z,101428.44
2019-02-06T12:24:51.237Z,101427.44
2019-02-06T12:27:22.473Z,101420.59
2019-02-06T12:29:53.810Z,101416.97
2019-02-06T12:32:25.167Z,101414.98
2019-02-06T12:34:56.587Z,101411.91
2019-02-06T12:37:27.833Z,101402.45
2019-02-06T12:39:59.359Z,101403.61
2019-02-06T12:42:30.733Z,101398.81
2019-02-06T12:45:02.093Z,101393.92
2019-02-06T12:47:33.596Z,101389.23
2019-02-06T12:50:09.751Z,101381.83
2019-02-06T12:52:41.214Z,101377.80
2019-02-06T12:55:22.988Z,101375.77
2019-02-06T12:57:54.425Z,101369.37
2019-02-06T13:00:32.088Z,101360.91
2019-02-06T13:03:03.616Z,101357.42
2019-02-06T13:05:35.252Z,101359.01
2019-02-06T13:08:07.568Z,101353.97
2019-02-06T13:10:39.189Z,101348.98
2019-02-06T13:13:13.670Z,101341.04
2019-02-06T13:15:47.285Z,101345.55
2019-02-06T13:18:24.198Z,101338.20
2019-02-06T13:20:55.313Z,101331.95
2019-02-06T13:23:26.752Z,101334.77
2019-02-06T13:25:58.771Z,101334.20
2019-02-06T13:28:30.055Z,101333.94
2019-02-06T13:31:01.520Z,101327.48
2019-02-06T13:33:32.973Z,101328.47
2019-02-06T13:36:07.705Z,101317.49
2019-02-06T13:38:39.352Z,101316.36
2019-02-06T13:41:12.440Z,101321.36
2019-02-06T13:43:43.824Z,101317.41
2019-02-06T13:46:16.094Z,101316.64
2019-02-06T13:48:50.561Z,101304.99
2019-02-06T13:51:22.907Z,101306.91
2019-02-06T13:53:54.231Z,101301.61
2019-02-06T13:56:31.848Z,101297.68
2019-02-06T13:59:03.254Z,101301.32
2019-02-06T14:01:35.087Z,101300.07
2019-02-06T14:04:06.533Z,101284.96
2019-02-06T14:06:37.841Z,101285.27
2019-02-06T14:09:21.657Z,101281.49
2019-02-06T14:11:44.387Z,101273.61
2019-02-06T14:14:16.551Z,101262.27
2019-02-06T14:16:47.906Z,101263.86
2019-02-06T14:19:19.407Z,101259.31
2019-02-06T14:21:51.109Z,101263.42
2019-02-06T14:24:27.175Z,101252.84
2019-02-06T14:27:22.640Z,101243.05
2019-02-06T14:30:27.876Z,101243.75
2019-02-06T14:33:28.696Z,101236.63
2019-02-06T14:36:18.217Z,101234.05
2019-02-06T14:39:00.409Z,101235.95
2019-02-06T14:41:43.868Z,101233.55
2019-02-06T14:44:31.651Z,101225.43
2019-02-06T14:47:22.813Z,101222.08
2019-02-06T14:50:17.810Z,101214.20
2019-02-06T14:53:20.288Z,101211.37
2019-02-06T14:56:13.869Z,101215.25
2019-02-06T14:59:19.016Z,101209.41
2019-02-06T15:02:36.916Z,101196.16
2019-02-06T15:05:27.621Z,101195.79
2019-02-06T15:08:24.784Z,101192.84
2019-02-06T15:11:19.397Z,101190.16
2019-02-06T15:13:55.489Z,101187.16
2019-02-06T15:16:50.742Z,101186.20
2019-02-06T15:19:38.848Z,101182.58
2019-02-06T15:22:23.671Z,101176.09
2019-02-06T15:25:08.555Z,101173.25
2019-02-06T15:28:24.282Z,101170.77
2019-02-06T15:31:22.681Z,101167.49
2019-02-06T15:34:15.608Z,101158.02
2019-02-06T15:37:00.916Z,101161.06
2019-02-06T15:40:13.320Z,101161.52
2019-02-06T15:43:00.120Z,101166.61
2019-02-06T15:49:17.053Z,101173.18
2019-02-06T15:51:53.031Z,101172.89
2019-02-06T15:55:11.561Z,101174.09
2019-02-06T15:58:07.269Z,101173.52
2019-02-06T16:00:47.283Z,101166.41
2019-02-06T16:04:16.245Z,101163.74
2019-02-06T16:07:29.711Z,101161.94
2019-02-06T16:10:23.843Z,101151.19
2019-02-06T16:13:20.609Z,101150.68
2019-02-06T16:16:23.638Z,101150.72
2019-02-06T16:19:19.767Z,101149.16
2019-02-06T16:22:27.676Z,101150.88
2019-02-06T16:25:06.711Z,101145.41
2019-02-06T16:28:08.384Z,101146.24
2019-02-06T16:31:02.335Z,101137.35
2019-02-06T16:33:44.515Z,101134.38
2019-02-06T16:36:55.799Z,101133.42
2019-02-06T16:39:44.844Z,101129.86
2019-02-06T16:42:50.824Z,101129.55
2019-02-06T16:46:07.908Z,101134.69
2019-02-06T16:49:12.033Z,101131.33
2019-02-06T16:52:15.259Z,101130.59
2019-02-06T16:55:14.602Z,101135.09
2019-02-06T16:58:14.678Z,101137.72
2019-02-06T17:01:27.175Z,101129.58
2019-02-06T17:04:31.340Z,101136.68
2019-02-06T17:07:32.862Z,101139.09
2019-02-06T17:10:30.113Z,101148.22
2019-02-06T17:13:22.786Z,101150.54
2019-02-06T17:16:31.554Z,101146.64
2019-02-06T17:19:19.645Z,101141.31
2019-02-06T17:22:01.541Z,101134.67
2019-02-06T17:25:00.663Z,101131.80
2019-02-06T17:28:00.447Z,101134.52
2019-02-06T17:30:45.103Z,101124.92
2019-02-06T17:33:32.665Z,101125.47
2019-02-06T17:36:37.762Z,101115.16
2019-02-06T17:39:55.781Z,101109.92
2019-02-06T17:42:52.437Z,101115.70
2019-02-06T17:45:45.863Z,101111.36
2019-02-06T17:48:50.519Z,101118.22
2019-02-06T17:51:47.487Z,101116.72
2019-02-06T17:54:28.057Z,101121.98
2019-02-06T17:56:59.430Z,101116.91
2019-02-06T17:59:31.015Z,101106.88
2019-02-06T18:02:02.400Z,101106.31
2019-02-06T18:04:33.924Z,101101.09
2019-02-06T18:07:05.437Z,101094.73
2019-02-06T18:09:36.856Z,101093.59
2019-02-06T18:12:08.461Z,101090.72
2019-02-06T18:14:39.705Z,101100.33
2019-02-06T18:17:12.166Z,101087.61
2019-02-06T18:19:43.571Z,101093.81
2019-02-06T18:22:15.159Z,101095.95
2019-02-06T18:24:46.486Z,101083.97
2019-02-06T18:27:17.802Z,101088.77
2019-02-06T18:29:49.109Z,101097.82
2019-02-06T18:32:20.867Z,101093.27
2019-02-06T18:34:57.126Z,101093.17
2019-02-06T18:37:28.573Z,101087.70
2019-02-06T18:40:00.332Z,101082.96
2019-02-06T18:42:36.920Z,101078.89
2019-02-06T18:45:08.218Z,101070.98
2019-02-06T18:47:39.625Z,101068.79
2019-02-06T18:50:31.344Z,101071.13
2019-02-06T18:53:03.592Z,101075.52
2019-02-06T18:55:36.238Z,101068.42
2019-02-06T18:58:10.009Z,101077.78
2019-02-06T19:00:45.431Z,101075.72
2019-02-06T19:03:36.106Z,101082.50
2019-02-06T19:06:07.589Z,101087.16
2019-02-06T19:08:40.122Z,101078.33
2019-02-06T19:11:11.934Z,101079.37
2019-02-06T19:13:43.371Z,101074.59
2019-02-06T19:16:16.895Z,101070.92
2019-02-06T19:18:49.703Z,101062.33
2019-02-06T19:21:22.011Z,101055.11
2019-02-06T19:23:54.576Z,101047.70
2019-02-06T19:26:26.614Z,101032.89
2019-02-06T19:28:58.108Z,101035.87
2019-02-06T19:31:29.562Z,101029.50
2019-02-06T19:34:01.177Z,101021.47
2019-02-06T19:36:34.276Z,101019.64
2019-02-06T19:39:08.543Z,101020.77
2019-02-06T19:41:41.280Z,101015.56
2019-02-06T19:44:12.877Z,101013.67
2019-02-06T19:46:44.382Z,101011.25
2019-02-06T19:49:15.976Z,101014.13
2019-02-06T19:51:50.249Z,101015.73
2019-02-06T19:54:21.798Z,101013.13
2019-02-06T19:56:53.971Z,101008.24
2019-02-06T19:59:26.410Z,101006.14
2019-02-06T20:01:59.227Z,101005.20
2019-02-06T20:04:30.758Z,101003.27
2019-02-06T20:07:02.555Z,101003.14
2019-02-06T20:09:34.033Z,100995.96
2019-02-06T20:12:05.659Z,101001.11
2019-02-06T20:14:37.579Z,100999.86
2019-02-06T20:17:09.254Z,100990.98
2019-02-06T20:19:40.828Z,100988.73
2019-02-06T20:22:12.640Z,100985.36
2019-02-06T20:24:46.259Z,100986.17
2019-02-06T20:27:18.511Z,100978.59
2019-02-06T20:29:50.283Z,100981.38
2019-02-06T20:32:24.451Z,100979.36
2019-02-06T20:34:54.797Z,100979.36
2019-02-06T20:37:26.463Z,100971.87
2019-02-06T20:39:57.718Z,100969.77
2019-02-06T20:42:29.050Z,100971.41
2019-02-06T20:45:01.329Z,100964.64
2019-02-06T20:47:34.520Z,100963.24
2019-02-06T20:50:16.133Z,100958.17
2019-02-06T20:52:47.583Z,100957.40
2019-02-06T20:55:20.384Z,100957.30
2019-02-06T20:57:51.831Z,100956.72
2019-02-06T21:00:36.928Z,100955.82
2019-02-06T21:03:08.596Z,100955.02
2019-02-06T21:05:41.595Z,100953.00
2019-02-06T21:08:13.019Z,100960.31
2019-02-06T21:10:44.308Z,100949.55
2019-02-06T21:13:15.658Z,100956.84
2019-02-06T21:15:47.215Z,100958.14
2019-02-06T21:18:18.627Z,100949.33
2019-02-06T21:20:51.869Z,100945.30
2019-02-06T21:23:23.168Z,100949.73
2019-02-06T21:25:54.548Z,100948.67
2019-02-06T21:28:25.983Z,100948.18
2019-02-06T21:30:57.430Z,100940.39
2019-02-06T21:33:29.438Z,100938.96
2019-02-06T21:36:14.328Z,100937.48
2019-02-06T21:38:48.821Z,100936.89
2019-02-06T21:41:21.672Z,100938.63
2019-02-06T21:43:53.051Z,100938.72
2019-02-06T21:46:24.400Z,100940.13
2019-02-06T21:48:55.730Z,100937.44
2019-02-06T21:51:27.094Z,100926.25
2019-02-06T21:53:58.418Z,100918.08
2019-02-06T21:56:29.684Z,100913.48
2019-02-06T21:59:04.870Z,100911.69
2019-02-06T22:01:37.160Z,100911.28
2019-02-06T22:04:08.614Z,100903.30
2019-02-06T22:06:39.859Z,100901.53
2019-02-06T22:09:12.097Z,100891.58
2019-02-06T22:11:43.420Z,100888.70
2019-02-06T22:14:14.792Z,100885.63
2019-02-06T22:16:46.114Z,100882.23
2019-02-06T22:19:17.402Z,100873.36
2019-02-06T22:21:49.762Z,100872.67
2019-02-06T22:24:21.198Z,100878.05
2019-02-06T22:26:52.458Z,100877.58
2019-02-06T22:29:23.758Z,100873.89
2019-02-06T22:31:55.078Z,100885.09
2019-02-06T22:34:26.456Z,100882.01
2019-02-06T22:36:57.783Z,100879.62
2019-02-06T22:39:29.086Z,100882.31
2019-02-06T22:42:00.477Z,100881.02
2019-02-06T22:44:31.763Z,100875.52
2019-02-06T22:47:03.020Z,100883.30
2019-02-06T22:49:34.265Z,100881.63
2019-02-06T22:52:05.887Z,100868.45
2019-02-06T22:54:37.283Z,100862.56
2019-02-06T22:57:08.589Z,100854.19
2019-02-06T22:59:39.841Z,100858.48
2019-02-06T23:02:11.398Z,100850.20
2019-02-06T23:04:42.791Z,100847.11
2019-02-06T23:07:14.311Z,100840.52
2019-02-06T23:09:45.561Z,100836.91
2019-02-06T23:12:16.996Z,100833.31
2019-02-06T23:14:48.466Z,100833.22
2019-02-06T23:17:19.832Z,100824.45
2019-02-06T23:19:51.086Z,100811.69
2019-02-06T23:22:22.429Z,100809.80
2019-02-06T23:24:53.746Z,100808.91
2019-02-06T23:27:25.119Z,100809.20
2019-02-06T23:29:56.365Z,100801.82
2019-02-06T23:32:27.732Z,100804.72
2019-02-06T23:34:59.057Z,100807.43
2019-02-06T23:37:31.350Z,100806.05
2019-02-06T23:40:02.878Z,100806.26
2019-02-06T23:42:34.263Z,100807.16
2019-02-06T23:45:09.834Z,100805.48
2019-02-06T23:47:41.566Z,100801.49
2019-02-06T23:50:16.071Z,100796.81
2019-02-06T23:52:47.602Z,100790.23
2019-02-06T23:55:18.880Z,100798.50
2019-02-06T23:57:50.464Z,100790.42
